This is the latest recevied weather packets stored in our database for station/object SV8FES-1. If no packets are shown the sender has not sent any weather packets the latest 1 day(s).
| Time | Temp. | Humidity | Pressure | Rain* | Wind** | Luminosity | Snow |
|---|---|---|---|---|---|---|---|
| 1778054643 | 23.33° C | 43% | 1016 hPa | 0 mm | - | 786 W/m² | - |
| 1778054595 | 23.33° C | 43% | 1016 hPa | 0 mm | - | 786 W/m² | - |
| 1778054523 | 23.33° C | 42% | 1016 hPa | 0 mm | - | 775 W/m² | - |
| 1778054475 | 23.33° C | 41% | 1016 hPa | 0 mm | - | 777 W/m² | - |
| 1778054235 | 23.33° C | 39% | 1016 hPa | 0 mm | - | 772 W/m² | - |
| 1778054115 | 23.33° C | 41% | 1016 hPa | 0 mm | - | 770 W/m² | - |
| 1778053923 | 23.33° C | 40% | 1016 hPa | 0 mm | - | 763 W/m² | - |
| 1778053875 | 23.33° C | 41% | 1016 hPa | 0 mm | - | 759 W/m² | - |
| 1778053755 | 23.33° C | 41% | 1016 hPa | 0 mm | - | 756 W/m² | - |
| 1778053563 | 23.33° C | 40% | 1015.9 hPa | 0 mm | - | 745 W/m² | - |
| 1778053515 | 23.33° C | 39% | 1015.9 hPa | 0 mm | - | 744 W/m² | - |
| 1778053203 | 23.33° C | 42% | 1015.9 hPa | 0 mm | - | 721 W/m² | - |
| 1778053083 | 23.33° C | 42% | 1015.9 hPa | 0 mm | - | 714 W/m² | - |
| 1778053034 | 23.33° C | 41% | 1015.8 hPa | 0 mm | - | 710 W/m² | - |
| 1778052962 | 23.33° C | 42% | 1015.9 hPa | 0 mm | - | 705 W/m² | - |
| 1778052843 | 23.33° C | 42% | 1015.8 hPa | 0 mm | - | 693 W/m² | - |
| 1778052794 | 23.33° C | 41% | 1015.9 hPa | 0 mm | - | 689 W/m² | - |
| 1778052675 | 23.33° C | 43% | 1015.8 hPa | 0 mm | - | 680 W/m² | - |
| 1778052483 | 23.33° C | 45% | 1015.8 hPa | 0 mm | - | 659 W/m² | - |
| 1778052435 | 22.78° C | 45% | 1015.8 hPa | 0 mm | - | 654 W/m² | - |
| 1778052363 | 22.78° C | 45% | 1015.8 hPa | 0 mm | - | 649 W/m² | - |
| 1778052315 | 22.78° C | 45% | 1015.8 hPa | 0 mm | - | 647 W/m² | - |
| 1778052243 | 22.78° C | 46% | 1015.8 hPa | 0 mm | - | 640 W/m² | - |
| 1778052075 | 22.22° C | 47% | 1015.7 hPa | 0 mm | - | 617 W/m² | - |
| 1778052003 | 22.22° C | 47% | 1015.7 hPa | 0 mm | - | 610 W/m² | - |
* Rain latest hour (hover to see other rain measurements)
** Current wind speed in m/s (hover to see current wind gust speed)